X  Luk Metar data        EBOS Ostend-Bruges International Airport
Temperatur
19°C Temperatur
12°C Duggpunkt
64% Fugtighed



Vind
31 KM/T
20 MPT
9 M/S
17 KNOB



260°
V
Nuværende forhold

Mostly Sunny Mest solrig
Tryk 1017 (hPa) - 30.03 (inHg)
Sigt 30 (mil) - 48 (km)
Lufthavn
Lufthavnskode EBOS

Lokation: Ostend-Bruges International Airport
Afstand: 60 (km)

Metar:
METAR EBOS 161050Z 26017KT 9999 FEW025 19/12 Q1017 NOSIG

Tid: 16-05-2022 12:50 CEST